Archer, FL

10:48 PM EST on January 24, 2015 (GMT -0500)
Haile Plantation | Change Station
CLOSE
Current Station
Personal Weather Station
Location: Gainesville, FL
Elevation: 84 ft
Nearby Weather Stations

Elev 84 ft 29.61 °N, 82.45 °W | Updated 3 minutes ago

Clear
Clear
42.3 °F
Feels Like 42 °F
N
0.0
Wind Variable Wind from North
Gusts 0.0 mph

Today
High -- | Low -- °F
--% Chance of Precip.
Yesterday
High -- | Low -- °F
Precip. -- in
7:23 AM 6:01 PM
Waxing Crescent, 28% visible
Pressure 30.04 in
Visibility 10.0 miles
Clouds Clear
Windchill 42 °F
Dew Point 42 °F
Humidity 100%
Rainfall 0.11 in
Snow Depth Not available.
UV 0 out of 12
Pollen 1.50 out of 12
Air Quality Not available.
Flu Activity Not available.
METAR KGNV 250253Z 27004KT 10SM CLR 07/05 A3003 RMK AO2 SLP171 T00670050 51016

More Conditions Fewer Conditions

Pressure 30.04 in
Visibility 10.0 miles
Clouds Clear
Windchill 42 °F
Dew Point 42 °F
Humidity 100%
Rainfall 0.11 in
Snow Depth Not available.
UV 0 out of 12
Pollen 1.50 out of 12
Air Quality Not available.
Flu Activity Not available.
METAR KGNV 250253Z 27004KT 10SM CLR 07/05 A3003 RMK AO2 SLP171 T00670050 51016

More Conditions Fewer Conditions

10-Day Weather Forecast

Almanac

Astronomy

Jan. 24, 2015 Rise Set
Actual Time
Civil Twilight
Nautical Twilight
Astronomical Twilight
Moon
Length of Visible Light
Length of Day
Tomorrow will be .
, % of the Moon is Illuminated

Today's Extremes

State Highs State Lows

Community

WunderPhotos

Upload Photos

1,789,825 photos uploaded!

WunderBlogs® & News

Nearby

Air Quality

  Air Quality AQ Index Pollutant
Not available.

Snow Depth

Station Depth Elevation

Earthquake Activity

City Distance Mag. Time & Date
Minimum magnitude displayed is 2.5.

Coastal Water Temperatures

Place Temperature

Nearby Weather Stations